Virtual Norwegian is not affiliated with Norwegian Air Shuttle in any way.
If you are looking for the real "Norwegian", or you wish to book Norwegian flights, please visit Norwegian.com


We use cookies to ensure you get the best experience on our website.   ACCEPT

LIMC - MXP - Milano (Malpensa)

General Info Alternate Airport
ICAO: LIMC Elevation: 767 ft ICAO: LIME
IATA: MXP Country: Italy IATA: BGY
City: Milano Charts: Log in to view charts City: Bergamo
Name: Malpensa Hub: No Name Bergamo Orio Al Serio
General Info
ICAO: LIMC
IATA: MXP
City: Milano
Name: Malpensa
Elevation: 767 ft
Country: Italy
Charts: Log in to view charts
Hub: No
 
Alternate Airport
ICAO: LIME
IATA: BGY
City: Bergamo
Name: Bergamo Orio Al Serio

Weather
211120Z 11004KT 070V150 9999 BKN020 20/17 Q1013 NOSIG
Weather
211120Z 11004KT 070V150 9999 BKN020 20/17 Q1013 NOSIG

Runway Info
17L
Length ILS/LOC Course
3920 m 110.75 168
17R
Length ILS/LOC Course
3920 m 111.10 168
35L
Length ILS/LOC Course
3920 m 109.10 348
35R
Length ILS/LOC Course
3920 m 109.90 348

NOTAMs
NOTAMs currently unavailable.
NOTAMs
NOTAMs currently unavailable

Route map
Airport
Airport (hub)